createdAt,value
2023-01-22T00:00:25.618Z,93
2023-01-22T00:05:24.813Z,93
2023-01-22T00:10:24.786Z,93
2023-01-22T00:15:24.789Z,93
2023-01-22T00:20:24.870Z,92
2023-01-22T00:25:24.931Z,92
2023-01-22T00:30:24.994Z,92
2023-01-22T00:35:25.221Z,92
2023-01-22T00:40:25.378Z,92
2023-01-22T00:45:25.483Z,92
2023-01-22T00:50:25.536Z,91
2023-01-22T00:55:25.706Z,91
2023-01-22T01:00:25.182Z,91
2023-01-22T01:05:24.700Z,91
2023-01-22T01:10:26.964Z,91
2023-01-22T01:15:25.304Z,91
2023-01-22T01:20:25.424Z,91
2023-01-22T01:25:25.424Z,91
2023-01-22T01:30:25.776Z,91
2023-01-22T01:35:25.291Z,91
2023-01-22T01:40:25.192Z,92
2023-01-22T01:45:25.443Z,92
2023-01-22T01:50:25.717Z,91
2023-01-22T01:55:25.267Z,91
2023-01-22T02:00:25.266Z,92
2023-01-22T02:05:25.043Z,92
2023-01-22T02:10:25.591Z,92
2023-01-22T02:15:25.293Z,92
2023-01-22T02:20:25.327Z,92
2023-01-22T02:25:25.392Z,92
2023-01-22T02:30:25.698Z,92
2023-01-22T02:35:24.727Z,92
2023-01-22T02:40:24.809Z,92
2023-01-22T02:45:25.622Z,92
2023-01-22T02:50:24.890Z,92
2023-01-22T02:55:25.374Z,92
2023-01-22T03:00:25.697Z,92
2023-01-22T03:05:25.529Z,92
2023-01-22T03:10:25.918Z,93
2023-01-22T03:15:24.945Z,93
2023-01-22T03:20:24.878Z,93
2023-01-22T03:25:25.562Z,93
2023-01-22T03:30:31.148Z,93
2023-01-22T03:35:25.080Z,93
2023-01-22T03:40:25.282Z,93
2023-01-22T03:45:25.229Z,93
2023-01-22T03:50:25.188Z,93
2023-01-22T03:55:25.657Z,93
2023-01-22T04:00:25.007Z,93
2023-01-22T04:05:24.884Z,93
2023-01-22T04:10:25.743Z,93
2023-01-22T04:15:25.079Z,93
2023-01-22T04:20:25.571Z,93
2023-01-22T04:25:25.141Z,93
2023-01-22T04:30:25.389Z,93
2023-01-22T04:35:25.271Z,93
2023-01-22T04:40:25.847Z,93
2023-01-22T04:45:25.051Z,93
2023-01-22T04:50:25.035Z,93
2023-01-22T04:55:25.433Z,93
2023-01-22T05:00:25.481Z,93
2023-01-22T05:05:25.499Z,93
2023-01-22T05:10:25.475Z,94
2023-01-22T05:15:25.474Z,94
2023-01-22T05:20:25.819Z,94
2023-01-22T05:25:24.912Z,94
2023-01-22T05:30:25.121Z,94
2023-01-22T05:35:25.809Z,94
2023-01-22T05:40:25.484Z,94
2023-01-22T05:45:25.802Z,94
2023-01-22T05:50:25.200Z,94
2023-01-22T05:55:25.202Z,94
2023-01-22T06:00:24.980Z,94
2023-01-22T06:05:25.492Z,94
2023-01-22T06:10:25.947Z,94
2023-01-22T06:15:25.274Z,94
2023-01-22T06:20:25.358Z,94
2023-01-22T06:25:25.703Z,94
2023-01-22T06:30:25.848Z,94
2023-01-22T06:35:25.062Z,94
2023-01-22T06:40:25.239Z,94
2023-01-22T06:45:25.223Z,94
2023-01-22T06:50:25.798Z,94
2023-01-22T06:55:25.931Z,94
2023-01-22T07:00:25.042Z,94
2023-01-22T07:05:24.969Z,94
2023-01-22T07:10:25.200Z,94
2023-01-22T07:15:25.898Z,94
2023-01-22T07:20:25.082Z,94
2023-01-22T07:25:25.632Z,94
2023-01-22T07:30:26.022Z,94
2023-01-22T07:35:25.135Z,94
2023-01-22T07:40:25.667Z,94
2023-01-22T07:45:25.768Z,94
2023-01-22T07:50:25.294Z,94
2023-01-22T07:55:25.380Z,94
2023-01-22T08:00:25.551Z,95
2023-01-22T08:05:25.441Z,95
2023-01-22T08:10:25.693Z,95
2023-01-22T08:15:25.369Z,95
2023-01-22T08:20:25.357Z,95
2023-01-22T08:25:25.751Z,95
2023-01-22T08:30:25.631Z,95
2023-01-22T08:35:25.226Z,95
2023-01-22T08:40:25.129Z,95
2023-01-22T08:45:25.397Z,95
2023-01-22T08:50:25.727Z,95
2023-01-22T08:55:25.980Z,95
2023-01-22T09:00:25.166Z,95
2023-01-22T09:05:25.563Z,95
2023-01-22T09:10:25.782Z,95
2023-01-22T09:15:25.805Z,95
2023-01-22T09:20:25.517Z,95
2023-01-22T09:25:25.785Z,95
2023-01-22T09:30:25.987Z,95
2023-01-22T09:35:25.314Z,95
2023-01-22T09:40:25.934Z,95
2023-01-22T09:45:25.655Z,95
2023-01-22T09:50:25.296Z,95
2023-01-22T09:55:25.792Z,95
2023-01-22T10:00:25.714Z,95
2023-01-22T10:05:25.473Z,95
2023-01-22T10:10:25.073Z,95
2023-01-22T10:15:25.899Z,95
2023-01-22T10:20:26.016Z,95
2023-01-22T10:25:25.864Z,95
2023-01-22T10:30:25.460Z,94
2023-01-22T10:35:26.091Z,94
2023-01-22T10:40:25.193Z,93
2023-01-22T10:45:26.039Z,93
2023-01-22T10:50:25.768Z,92
2023-01-22T10:55:31.841Z,92
2023-01-22T11:00:25.271Z,91
2023-01-22T11:05:25.329Z,91
2023-01-22T11:10:25.740Z,90
2023-01-22T11:15:26.031Z,90
2023-01-22T11:20:25.968Z,89
2023-01-22T11:25:25.657Z,89
2023-01-22T11:30:26.116Z,89
2023-01-22T11:35:25.521Z,89
2023-01-22T11:40:25.707Z,89
2023-01-22T11:45:26.126Z,89
2023-01-22T11:50:25.179Z,89
2023-01-22T11:55:25.228Z,89
2023-01-22T12:00:25.325Z,88
2023-01-22T12:05:25.343Z,88
2023-01-22T12:10:25.536Z,88
2023-01-22T12:15:25.599Z,88
2023-01-22T12:20:25.678Z,88
2023-01-22T12:25:25.883Z,88
2023-01-22T12:30:26.096Z,88
2023-01-22T12:35:25.505Z,88
2023-01-22T12:40:25.333Z,88
2023-01-22T12:45:25.976Z,88
2023-01-22T12:50:25.182Z,88
2023-01-22T12:55:26.025Z,88
2023-01-22T13:00:26.066Z,88
2023-01-22T13:05:25.728Z,88
2023-01-22T13:10:25.775Z,88
2023-01-22T13:15:25.367Z,88
2023-01-22T13:20:25.189Z,88
2023-01-22T13:25:26.162Z,88
2023-01-22T13:30:25.242Z,88
2023-01-22T13:35:26.065Z,88
2023-01-22T13:40:25.273Z,88
2023-01-22T13:45:25.885Z,88
2023-01-22T13:50:25.833Z,88
2023-01-22T13:55:25.586Z,88
2023-01-22T14:00:25.967Z,88
2023-01-22T14:05:26.048Z,88
2023-01-22T14:10:25.235Z,88
2023-01-22T14:15:25.457Z,88
2023-01-22T14:20:25.560Z,88
2023-01-22T14:25:25.797Z,88
2023-01-22T14:30:26.090Z,88
2023-01-22T14:35:25.242Z,88
2023-01-22T14:40:25.326Z,88
2023-01-22T14:45:25.563Z,88
2023-01-22T14:50:25.870Z,88
2023-01-22T14:55:25.242Z,88
2023-01-22T15:00:26.039Z,88
2023-01-22T15:05:25.867Z,88
2023-01-22T15:10:25.338Z,88
2023-01-22T15:15:26.024Z,88
2023-01-22T15:20:25.685Z,88
2023-01-22T15:25:25.798Z,88
2023-01-22T15:30:25.711Z,88
2023-01-22T15:35:26.072Z,88
2023-01-22T15:40:25.590Z,88
2023-01-22T15:45:26.003Z,88
2023-01-22T15:50:25.428Z,88
2023-01-22T15:55:25.918Z,88
2023-01-22T16:00:25.292Z,88
2023-01-22T16:05:25.401Z,88
2023-01-22T16:10:25.842Z,88
2023-01-22T16:15:25.364Z,88
2023-01-22T16:20:26.163Z,88
2023-01-22T16:25:25.734Z,88
2023-01-22T16:30:25.633Z,89
2023-01-22T16:35:26.093Z,89
2023-01-22T16:40:25.522Z,89
2023-01-22T16:45:25.280Z,89
2023-01-22T16:50:25.708Z,89
2023-01-22T16:55:25.817Z,89
2023-01-22T17:00:26.148Z,89
2023-01-22T17:05:26.225Z,89
2023-01-22T17:10:25.538Z,89
2023-01-22T17:15:25.587Z,89
2023-01-22T17:20:31.408Z,89
2023-01-22T17:25:25.958Z,89
2023-01-22T17:30:25.990Z,90
2023-01-22T17:35:25.255Z,90
2023-01-22T17:40:25.535Z,90
2023-01-22T17:45:25.732Z,90
2023-01-22T17:50:25.731Z,90
2023-01-22T17:55:25.907Z,90
2023-01-22T18:00:26.119Z,91
2023-01-22T18:05:26.243Z,91
2023-01-22T18:10:25.363Z,91
2023-01-22T18:15:25.360Z,91
2023-01-22T18:20:25.502Z,91
2023-01-22T18:25:25.476Z,91
2023-01-22T18:30:25.529Z,91
2023-01-22T18:35:25.808Z,91
2023-01-22T18:40:25.656Z,92
2023-01-22T18:45:25.761Z,92
2023-01-22T18:50:25.756Z,92
2023-01-22T18:55:25.863Z,92
2023-01-22T19:00:25.551Z,92
2023-01-22T19:05:25.716Z,92
2023-01-22T19:10:25.683Z,92
2023-01-22T19:15:25.409Z,92
2023-01-22T19:20:26.227Z,92
2023-01-22T19:25:25.853Z,92
2023-01-22T19:30:25.505Z,92
2023-01-22T19:35:25.873Z,92
2023-01-22T19:40:26.036Z,92
2023-01-22T19:45:25.660Z,92
2023-01-22T19:50:26.289Z,92
2023-01-22T19:55:26.259Z,92
2023-01-22T20:00:25.459Z,92
2023-01-22T20:05:25.661Z,92
2023-01-22T20:10:26.311Z,92
2023-01-22T20:15:25.571Z,92
2023-01-22T20:20:25.733Z,92
2023-01-22T20:25:26.103Z,92
2023-01-22T20:30:25.865Z,92
2023-01-22T20:35:26.332Z,92
2023-01-22T20:40:26.548Z,92
2023-01-22T20:45:25.700Z,92
2023-01-22T20:50:26.066Z,92
2023-01-22T20:55:25.756Z,92
2023-01-22T21:00:25.529Z,92
2023-01-22T21:05:26.056Z,92
2023-01-22T21:10:26.043Z,92
2023-01-22T21:15:26.125Z,92
2023-01-22T21:20:25.744Z,93
2023-01-22T21:25:26.266Z,93
2023-01-22T21:30:25.570Z,93
2023-01-22T21:35:26.093Z,93
2023-01-22T21:40:26.273Z,93
2023-01-22T21:45:25.804Z,93
2023-01-22T21:50:26.220Z,93
2023-01-22T21:55:26.611Z,93
2023-01-22T22:00:25.686Z,93
2023-01-22T22:05:25.946Z,93
2023-01-22T22:10:26.346Z,93
2023-01-22T22:15:25.950Z,93
2023-01-22T22:20:25.556Z,93
2023-01-22T22:25:26.551Z,93
2023-01-22T22:30:26.434Z,93
2023-01-22T22:35:25.674Z,93
2023-01-22T22:40:25.782Z,93
2023-01-22T22:45:26.363Z,93
2023-01-22T22:50:25.784Z,93
2023-01-22T22:55:25.657Z,93
2023-01-22T23:00:29.529Z,93
2023-01-22T23:05:26.096Z,93
2023-01-22T23:10:26.238Z,93
2023-01-22T23:15:26.211Z,93
2023-01-22T23:20:25.612Z,93
2023-01-22T23:25:25.797Z,93
2023-01-22T23:30:26.022Z,93
2023-01-22T23:35:26.242Z,93
2023-01-22T23:40:26.474Z,93
2023-01-22T23:45:25.507Z,93
2023-01-22T23:50:25.675Z,93
2023-01-22T23:55:25.903Z,93
